createdAt,value
2017-04-28T00:00:25.174Z,983.21
2017-04-28T00:01:35.427Z,983.24
2017-04-28T00:02:45.692Z,983.22
2017-04-28T00:03:55.960Z,983.27
2017-04-28T00:05:06.231Z,983.23
2017-04-28T00:06:16.525Z,983.3
2017-04-28T00:07:26.779Z,983.3
2017-04-28T00:08:37.030Z,983.3
2017-04-28T00:09:46.979Z,983.29
2017-04-28T00:10:57.268Z,983.32
2017-04-28T00:12:07.528Z,983.29
2017-04-28T00:13:17.789Z,983.33
2017-04-28T00:14:28.048Z,983.36
2017-04-28T00:15:37.994Z,983.37
2017-04-28T00:16:48.246Z,983.39
2017-04-28T00:17:58.505Z,983.39
2017-04-28T00:19:08.764Z,983.39
2017-04-28T00:20:19.025Z,983.41
2017-04-28T00:21:29.275Z,983.45
2017-04-28T00:22:39.530Z,983.44
2017-04-28T00:23:49.783Z,983.43
2017-04-28T00:25:00.047Z,983.48
2017-04-28T00:26:10.295Z,983.48
2017-04-28T00:27:20.557Z,983.48
2017-04-28T00:28:30.816Z,983.46
2017-04-28T00:29:41.073Z,983.46
2017-04-28T00:30:51.333Z,983.48
2017-04-28T00:32:01.604Z,983.46
2017-04-28T00:33:13.558Z,983.49
2017-04-28T00:34:23.817Z,983.52
2017-04-28T00:35:34.078Z,983.48
2017-04-28T00:36:44.331Z,983.53
2017-04-28T00:37:54.585Z,983.53
2017-04-28T00:39:04.850Z,983.53
2017-04-28T00:40:14.797Z,983.54
2017-04-28T00:41:25.049Z,983.53
2017-04-28T00:42:35.309Z,983.59
2017-04-28T00:43:45.566Z,983.62
2017-04-28T00:44:55.827Z,983.65
2017-04-28T00:46:06.089Z,983.64
2017-04-28T00:47:16.343Z,983.61
2017-04-28T00:48:26.600Z,983.61
2017-04-28T00:49:36.859Z,983.63
2017-04-28T00:50:47.116Z,983.69
2017-04-28T00:51:57.367Z,983.68
2017-04-28T00:53:07.628Z,983.72
2017-04-28T00:54:17.894Z,983.74
2017-04-28T00:55:28.151Z,983.75
2017-04-28T00:56:38.414Z,983.72
2017-04-28T00:57:48.695Z,983.75
2017-04-28T00:58:58.953Z,983.73
2017-04-28T01:00:08.911Z,983.79
2017-04-28T01:01:19.174Z,983.78
2017-04-28T01:02:29.441Z,983.79
2017-04-28T01:03:39.697Z,983.81
2017-04-28T01:04:49.953Z,983.79
2017-04-28T01:06:00.219Z,983.82
2017-04-28T01:07:10.468Z,983.8
2017-04-28T01:08:20.726Z,983.81
2017-04-28T01:09:30.670Z,983.81
2017-04-28T01:10:40.933Z,983.79
2017-04-28T01:11:51.190Z,983.83
2017-04-28T01:13:01.142Z,983.8
2017-04-28T01:14:11.398Z,983.86
2017-04-28T01:15:21.650Z,983.86
2017-04-28T01:16:31.589Z,983.89
2017-04-28T01:17:41.844Z,983.89
2017-04-28T01:18:52.105Z,983.84
2017-04-28T01:20:02.367Z,983.89
2017-04-28T01:21:11.993Z,983.9
2017-04-28T01:22:22.251Z,983.84
2017-04-28T01:23:32.542Z,983.82
2017-04-28T01:24:42.795Z,983.86
2017-04-28T01:25:52.739Z,983.88
2017-04-28T01:27:02.995Z,983.91
2017-04-28T01:28:13.254Z,983.87
2017-04-28T01:29:23.202Z,983.9
2017-04-28T01:30:33.477Z,983.91
2017-04-28T01:31:45.999Z,983.93
2017-04-28T01:32:56.260Z,983.94
2017-04-28T01:34:06.207Z,983.92
2017-04-28T01:35:15.518Z,983.88
2017-04-28T01:36:25.764Z,983.86
2017-04-28T01:37:36.013Z,983.93
2017-04-28T01:38:46.275Z,983.92
2017-04-28T01:39:56.227Z,983.93
2017-04-28T01:41:06.168Z,983.96
2017-04-28T01:42:16.417Z,983.94
2017-04-28T01:43:26.681Z,983.92
2017-04-28T01:44:36.942Z,983.95
2017-04-28T01:45:46.920Z,983.94
2017-04-28T01:46:57.174Z,983.97
2017-04-28T01:48:07.440Z,983.95
2017-04-28T01:49:17.426Z,983.97
2017-04-28T01:50:27.712Z,983.96
2017-04-28T01:51:37.965Z,983.99
2017-04-28T01:52:48.214Z,983.96
2017-04-28T01:53:58.473Z,983.97
2017-04-28T01:55:08.726Z,983.98
2017-04-28T01:56:18.986Z,983.99
2017-04-28T01:57:29.273Z,984
2017-04-28T01:58:39.535Z,984.08
2017-04-28T01:59:49.482Z,984.06
2017-04-28T02:00:59.743Z,984.06
2017-04-28T02:02:09.696Z,984.08
2017-04-28T02:03:19.640Z,984.07
2017-04-28T02:04:29.907Z,984.1
2017-04-28T02:05:40.167Z,984.11
2017-04-28T02:06:50.421Z,984.13
2017-04-28T02:08:00.675Z,984.14
2017-04-28T02:09:10.305Z,984.17
2017-04-28T02:10:20.562Z,984.17
2017-04-28T02:11:30.507Z,984.15
2017-04-28T02:12:40.756Z,984.18
2017-04-28T02:13:51.013Z,984.2
2017-04-28T02:15:01.275Z,984.22
2017-04-28T02:16:11.523Z,984.18
2017-04-28T02:17:21.774Z,984.22
2017-04-28T02:18:32.037Z,984.18
2017-04-28T02:19:42.291Z,984.21
2017-04-28T02:20:52.553Z,984.27
2017-04-28T02:22:02.817Z,984.29
2017-04-28T02:23:13.068Z,984.27
2017-04-28T02:24:23.320Z,984.3
2017-04-28T02:25:33.624Z,984.28
2017-04-28T02:26:43.886Z,984.31
2017-04-28T02:27:54.140Z,984.3
2017-04-28T02:29:04.396Z,984.33
2017-04-28T02:30:14.346Z,984.32
2017-04-28T02:31:24.604Z,984.32
2017-04-28T02:32:34.866Z,984.32
2017-04-28T02:33:45.135Z,984.3
2017-04-28T02:34:55.427Z,984.33
2017-04-28T02:36:05.377Z,984.34
2017-04-28T02:37:15.629Z,984.32
2017-04-28T02:38:25.885Z,984.34
2017-04-28T02:39:36.147Z,984.36
2017-04-28T02:40:46.091Z,984.36
2017-04-28T02:41:56.357Z,984.37
2017-04-28T02:43:05.985Z,984.39
2017-04-28T02:44:15.930Z,984.38
2017-04-28T02:45:25.873Z,984.4
2017-04-28T02:46:36.129Z,984.36
2017-04-28T02:47:46.075Z,984.34
2017-04-28T02:48:56.336Z,984.4
2017-04-28T02:50:06.595Z,984.4
2017-04-28T02:51:16.853Z,984.35
2017-04-28T02:52:27.107Z,984.37
2017-04-28T02:53:37.362Z,984.35
2017-04-28T02:54:47.301Z,984.39
2017-04-28T02:55:57.557Z,984.37
2017-04-28T02:57:07.502Z,984.4
2017-04-28T02:58:17.768Z,984.38
2017-04-28T02:59:28.046Z,984.38
2017-04-28T03:00:38.003Z,984.39
2017-04-28T03:01:48.263Z,984.41
2017-04-28T03:02:58.523Z,984.42
2017-04-28T03:04:08.778Z,984.46
2017-04-28T03:05:18.723Z,984.47
2017-04-28T03:06:28.975Z,984.42
2017-04-28T03:07:39.232Z,984.46
2017-04-28T03:08:49.495Z,984.48
2017-04-28T03:09:59.761Z,984.52
2017-04-28T03:11:09.704Z,984.56
2017-04-28T03:12:19.964Z,984.55
2017-04-28T03:13:30.216Z,984.52
2017-04-28T03:14:40.468Z,984.55
2017-04-28T03:15:50.727Z,984.55
2017-04-28T03:17:00.984Z,984.48
2017-04-28T03:18:10.611Z,984.52
2017-04-28T03:19:20.869Z,984.52
2017-04-28T03:20:31.137Z,984.56
2017-04-28T03:21:41.388Z,984.58
2017-04-28T03:22:51.643Z,984.62
2017-04-28T03:24:01.898Z,984.64
2017-04-28T03:25:11.219Z,984.66
2017-04-28T03:26:21.163Z,984.69
2017-04-28T03:27:31.420Z,984.68
2017-04-28T03:28:41.688Z,984.68
2017-04-28T03:29:51.631Z,984.66
2017-04-28T03:31:01.895Z,984.61
2017-04-28T03:32:12.149Z,984.68
2017-04-28T03:33:22.410Z,984.69
2017-04-28T03:34:32.684Z,984.64
2017-04-28T03:35:42.944Z,984.68
2017-04-28T03:36:53.211Z,984.67
2017-04-28T03:38:03.479Z,984.73
2017-04-28T03:39:13.423Z,984.72
2017-04-28T03:40:23.372Z,984.74
2017-04-28T03:41:33.311Z,984.76
2017-04-28T03:42:43.565Z,984.75
2017-04-28T03:43:53.509Z,984.79
2017-04-28T03:45:03.766Z,984.8
2017-04-28T03:46:14.021Z,984.8
2017-04-28T03:47:24.271Z,984.8
2017-04-28T03:48:34.223Z,984.8
2017-04-28T03:49:44.480Z,984.88
2017-04-28T03:50:54.740Z,984.84
2017-04-28T03:52:04.994Z,984.85
2017-04-28T03:53:14.635Z,984.87
2017-04-28T03:54:24.893Z,984.9
2017-04-28T03:55:34.846Z,984.91
2017-04-28T03:56:45.103Z,984.92
2017-04-28T03:57:55.366Z,984.92
2017-04-28T03:59:05.329Z,985
2017-04-28T04:00:14.964Z,985.02
2017-04-28T04:01:25.214Z,985.05
2017-04-28T04:02:35.475Z,985.05
2017-04-28T04:03:45.727Z,985.08
2017-04-28T04:04:55.989Z,985.08
2017-04-28T04:06:06.248Z,985.04
2017-04-28T04:07:16.187Z,985.08
2017-04-28T04:08:26.444Z,985.12
2017-04-28T04:09:36.706Z,985.08
2017-04-28T04:10:46.958Z,985.14
2017-04-28T04:11:57.215Z,985.1
2017-04-28T04:13:07.159Z,985.14
2017-04-28T04:14:17.103Z,985.11
2017-04-28T04:15:27.360Z,985.14
2017-04-28T04:16:37.626Z,985.12
2017-04-28T04:17:47.879Z,985.18
2017-04-28T04:18:58.139Z,985.15
2017-04-28T04:20:08.393Z,985.16
2017-04-28T04:21:18.027Z,985.18
2017-04-28T04:22:28.290Z,985.23
2017-04-28T04:23:38.548Z,985.17
2017-04-28T04:24:48.804Z,985.2
2017-04-28T04:25:59.064Z,985.2
2017-04-28T04:27:09.007Z,985.18
2017-04-28T04:28:18.958Z,985.18
2017-04-28T04:29:29.224Z,985.23
2017-04-28T04:30:39.481Z,985.21
2017-04-28T04:31:49.738Z,985.2
2017-04-28T04:32:59.997Z,985.23
2017-04-28T04:34:09.940Z,985.17
2017-04-28T04:35:19.883Z,985.13
2017-04-28T04:36:30.135Z,985.18
2017-04-28T04:37:40.390Z,985.2
2017-04-28T04:38:50.652Z,985.18
2017-04-28T04:40:00.903Z,985.23
2017-04-28T04:41:11.161Z,985.2
2017-04-28T04:42:21.418Z,985.23
2017-04-28T04:43:31.690Z,985.29
2017-04-28T04:44:41.957Z,985.35
2017-04-28T04:45:52.217Z,985.36
2017-04-28T04:47:02.471Z,985.27
2017-04-28T04:48:12.726Z,985.25
2017-04-28T04:49:22.684Z,985.31
2017-04-28T04:50:32.946Z,985.28
2017-04-28T04:51:42.576Z,985.26
2017-04-28T04:52:52.837Z,985.25
2017-04-28T04:54:03.098Z,985.21
2017-04-28T04:55:13.361Z,985.22
2017-04-28T04:56:23.302Z,985.19
2017-04-28T04:57:33.246Z,985.21
2017-04-28T04:58:43.514Z,985.19
2017-04-28T04:59:53.770Z,985.2
2017-04-28T05:01:03.723Z,985.23
2017-04-28T05:02:13.707Z,985.24
2017-04-28T05:03:23.970Z,985.29
2017-04-28T05:04:34.237Z,985.27
2017-04-28T05:05:44.493Z,985.25
2017-04-28T05:06:54.439Z,985.29
2017-04-28T05:08:04.695Z,985.26
2017-04-28T05:09:14.647Z,985.28
2017-04-28T05:10:24.909Z,985.32
2017-04-28T05:11:35.160Z,985.37
2017-04-28T05:12:45.413Z,985.35
2017-04-28T05:13:55.666Z,985.38
2017-04-28T05:15:05.920Z,985.38
2017-04-28T05:16:16.172Z,985.4
2017-04-28T05:17:26.429Z,985.38
2017-04-28T05:18:36.686Z,985.37
2017-04-28T05:19:46.957Z,985.33
2017-04-28T05:20:57.227Z,985.37
2017-04-28T05:22:07.487Z,985.34
2017-04-28T05:23:17.746Z,985.35
2017-04-28T05:24:28.009Z,985.41
2017-04-28T05:25:38.274Z,985.43
2017-04-28T05:26:48.560Z,985.43
2017-04-28T05:27:58.814Z,985.47
2017-04-28T05:29:08.754Z,985.48
2017-04-28T05:30:19.021Z,985.51
2017-04-28T05:31:28.969Z,985.5
2017-04-28T05:32:39.231Z,985.51
2017-04-28T05:33:49.496Z,985.51
2017-04-28T05:34:59.752Z,985.5
2017-04-28T05:36:10.004Z,985.48
2017-04-28T05:37:20.260Z,985.48
2017-04-28T05:38:30.519Z,985.45
2017-04-28T05:39:40.773Z,985.48
2017-04-28T05:40:51.035Z,985.49
2017-04-28T05:42:01.311Z,985.52
2017-04-28T05:43:11.263Z,985.5
2017-04-28T05:44:21.523Z,985.52
2017-04-28T05:45:31.790Z,985.54
2017-04-28T05:46:42.047Z,985.57
2017-04-28T05:47:52.312Z,985.62
2017-04-28T05:49:02.576Z,985.7
2017-04-28T05:50:12.211Z,985.7
2017-04-28T05:51:22.482Z,985.74
2017-04-28T05:52:32.416Z,985.71
2017-04-28T05:53:42.675Z,985.73
2017-04-28T05:54:52.937Z,985.79
2017-04-28T05:56:03.197Z,985.77
2017-04-28T05:57:13.450Z,985.84
2017-04-28T05:58:23.392Z,985.84
2017-04-28T05:59:33.663Z,985.85
2017-04-28T06:00:43.614Z,985.85
2017-04-28T06:01:53.561Z,985.84
2017-04-28T06:03:03.824Z,985.91
2017-04-28T06:04:13.806Z,985.95
2017-04-28T06:05:24.062Z,985.94
2017-04-28T06:06:34.318Z,986
2017-04-28T06:07:43.942Z,986.03
2017-04-28T06:08:54.213Z,986.02
2017-04-28T06:10:04.489Z,986.07
2017-04-28T06:11:14.745Z,986.04
2017-04-28T06:12:25.001Z,986.08
2017-04-28T06:13:34.943Z,986.11
2017-04-28T06:14:44.895Z,986.13
2017-04-28T06:15:55.172Z,986.12
2017-04-28T06:17:05.113Z,986.14
2017-04-28T06:18:15.067Z,986.15
2017-04-28T06:19:25.392Z,986.18
2017-04-28T06:20:35.341Z,986.16
2017-04-28T06:21:45.280Z,986.13
2017-04-28T06:22:55.533Z,986.17
2017-04-28T06:24:05.789Z,986.22
2017-04-28T06:25:15.423Z,986.23
2017-04-28T06:26:25.678Z,986.26
2017-04-28T06:27:35.968Z,986.27
2017-04-28T06:28:46.253Z,986.34
2017-04-28T06:29:56.543Z,986.37
2017-04-28T06:31:06.817Z,986.4
2017-04-28T06:32:17.093Z,986.45
2017-04-28T06:33:27.353Z,986.44
2017-04-28T06:34:37.605Z,986.44
2017-04-28T06:35:47.863Z,986.47
2017-04-28T06:36:58.112Z,986.46
2017-04-28T06:38:08.366Z,986.5
2017-04-28T06:39:18.320Z,986.53
2017-04-28T06:40:28.581Z,986.54
2017-04-28T06:41:38.839Z,986.53
2017-04-28T06:42:48.789Z,986.52
2017-04-28T06:43:59.048Z,986.58
2017-04-28T06:45:09.310Z,986.55
2017-04-28T06:46:19.567Z,986.49
2017-04-28T06:47:29.522Z,986.51
2017-04-28T06:48:39.789Z,986.55
2017-04-28T06:49:50.083Z,986.54
2017-04-28T06:51:00.343Z,986.62
2017-04-28T06:52:10.289Z,986.57
2017-04-28T06:53:20.543Z,986.59
2017-04-28T06:54:30.798Z,986.59
2017-04-28T06:55:41.057Z,986.62
2017-04-28T06:56:51.310Z,986.67
2017-04-28T06:58:01.568Z,986.64
2017-04-28T06:59:11.830Z,986.69
2017-04-28T07:00:22.104Z,986.67
2017-04-28T07:01:32.056Z,986.72
2017-04-28T07:02:42.323Z,986.76
2017-04-28T07:03:52.583Z,986.75
2017-04-28T07:05:02.832Z,986.78
2017-04-28T07:06:12.147Z,986.73
2017-04-28T07:07:22.415Z,986.73
2017-04-28T07:08:32.379Z,986.74
2017-04-28T07:09:42.644Z,986.74
2017-04-28T07:10:52.893Z,986.75
2017-04-28T07:12:02.839Z,986.77
2017-04-28T07:13:13.102Z,986.77
2017-04-28T07:14:23.364Z,986.81
2017-04-28T07:15:33.626Z,986.84
2017-04-28T07:16:43.890Z,986.84
2017-04-28T07:17:54.150Z,986.82
2017-04-28T07:19:04.445Z,986.86
2017-04-28T07:20:14.706Z,986.91
2017-04-28T07:21:24.970Z,986.96
2017-04-28T07:22:34.920Z,986.97
2017-04-28T07:23:45.188Z,986.96
2017-04-28T07:24:55.446Z,986.96
2017-04-28T07:26:05.699Z,987
2017-04-28T07:27:15.329Z,987.02
2017-04-28T07:28:25.271Z,987
2017-04-28T07:29:35.528Z,987
2017-04-28T07:30:45.783Z,987.01
2017-04-28T07:31:56.040Z,987.01
2017-04-28T07:33:06.310Z,987.01
2017-04-28T07:34:16.600Z,986.96
2017-04-28T07:35:26.583Z,986.95
2017-04-28T07:36:36.537Z,986.93
2017-04-28T07:37:46.792Z,986.94
2017-04-28T07:38:57.050Z,986.88
2017-04-28T07:40:07.304Z,986.89
2017-04-28T07:41:17.592Z,986.94
2017-04-28T07:42:27.860Z,986.97
2017-04-28T07:43:38.117Z,986.94
2017-04-28T07:44:48.060Z,987
2017-04-28T07:45:58.328Z,986.99
2017-04-28T07:47:08.278Z,987
2017-04-28T07:48:18.219Z,987.05
2017-04-28T07:49:28.475Z,987.04
2017-04-28T07:50:38.734Z,987.05
2017-04-28T07:51:48.992Z,987.12
2017-04-28T07:52:59.252Z,987.12
2017-04-28T07:54:09.510Z,987.13
2017-04-28T07:55:19.767Z,987.17
2017-04-28T07:56:30.027Z,987.26
2017-04-28T07:57:39.971Z,987.23
2017-04-28T07:58:50.225Z,987.24
2017-04-28T08:00:00.496Z,987.3
2017-04-28T08:01:10.136Z,987.32
2017-04-28T08:02:20.414Z,987.32
2017-04-28T08:03:30.360Z,987.29
2017-04-28T08:04:40.630Z,987.27
2017-04-28T08:05:50.898Z,987.31
2017-04-28T08:07:01.161Z,987.29
2017-04-28T08:08:11.418Z,987.35
2017-04-28T08:09:21.676Z,987.35
2017-04-28T08:10:31.935Z,987.38
2017-04-28T08:11:42.200Z,987.31
2017-04-28T08:12:52.461Z,987.36
2017-04-28T08:14:02.724Z,987.37
2017-04-28T08:15:12.676Z,987.34
2017-04-28T08:16:22.937Z,987.34
2017-04-28T08:17:33.194Z,987.37
2017-04-28T08:18:43.135Z,987.34
2017-04-28T08:19:53.395Z,987.39
2017-04-28T08:21:03.651Z,987.4
2017-04-28T08:22:13.911Z,987.41
2017-04-28T08:23:23.854Z,987.42
2017-04-28T08:24:34.120Z,987.44
2017-04-28T08:25:44.385Z,987.44
2017-04-28T08:26:54.643Z,987.48
2017-04-28T08:28:04.902Z,987.47
2017-04-28T08:29:14.844Z,987.49
2017-04-28T08:30:25.133Z,987.52
2017-04-28T08:31:35.073Z,987.5
2017-04-28T08:32:45.332Z,987.49
2017-04-28T08:33:55.588Z,987.47
2017-04-28T08:35:05.848Z,987.48
2017-04-28T08:36:15.791Z,987.53
2017-04-28T08:37:26.050Z,987.54
2017-04-28T08:38:36.304Z,987.6
2017-04-28T08:39:46.561Z,987.56
2017-04-28T08:40:56.510Z,987.51
2017-04-28T08:42:06.770Z,987.55
2017-04-28T08:43:16.723Z,987.57
2017-04-28T08:44:26.977Z,987.52
2017-04-28T08:45:37.242Z,987.55
2017-04-28T08:46:47.508Z,987.51
2017-04-28T08:47:57.766Z,987.54
2017-04-28T08:49:08.022Z,987.53
2017-04-28T08:50:17.971Z,987.56
2017-04-28T08:51:28.229Z,987.57
2017-04-28T08:52:38.176Z,987.56
2017-04-28T08:53:48.435Z,987.59
2017-04-28T08:54:58.694Z,987.6
2017-04-28T08:56:08.951Z,987.63
2017-04-28T08:57:18.894Z,987.61
2017-04-28T08:58:29.159Z,987.59
2017-04-28T08:59:39.423Z,987.7
2017-04-28T09:00:49.682Z,987.61
2017-04-28T09:01:59.940Z,987.65
2017-04-28T09:03:09.878Z,987.61
2017-04-28T09:04:20.140Z,987.61
2017-04-28T09:05:30.402Z,987.62
2017-04-28T09:06:40.664Z,987.67
2017-04-28T09:07:50.921Z,987.63
2017-04-28T09:09:01.222Z,987.64
2017-04-28T09:10:11.485Z,987.68
2017-04-28T09:11:21.748Z,987.71
2017-04-28T09:12:32.005Z,987.69
2017-04-28T09:13:42.265Z,987.68
2017-04-28T09:14:52.516Z,987.65
2017-04-28T09:16:02.773Z,987.69
2017-04-28T09:17:12.090Z,987.68
2017-04-28T09:18:22.042Z,987.67
2017-04-28T09:19:32.599Z,987.73
2017-04-28T09:20:42.859Z,987.72
2017-04-28T09:21:53.121Z,987.71
2017-04-28T09:23:03.076Z,987.79
2017-04-28T09:24:13.338Z,987.81
2017-04-28T09:25:23.279Z,987.8
2017-04-28T09:26:33.544Z,987.79
2017-04-28T09:27:43.798Z,987.7
2017-04-28T09:28:54.068Z,987.76
2017-04-28T09:30:04.328Z,987.72
2017-04-28T09:31:14.591Z,987.78
2017-04-28T09:32:24.849Z,987.9
2017-04-28T09:33:34.795Z,987.91
2017-04-28T09:34:45.052Z,987.95
2017-04-28T09:35:55.312Z,987.88
2017-04-28T09:37:05.574Z,987.88
2017-04-28T09:38:15.832Z,987.83
2017-04-28T09:39:26.093Z,987.94
2017-04-28T09:40:36.354Z,987.99
2017-04-28T09:41:46.304Z,987.95
2017-04-28T09:42:56.561Z,987.95
2017-04-28T09:44:06.816Z,987.99
2017-04-28T09:45:16.762Z,987.97
2017-04-28T09:46:27.019Z,988.1
2017-04-28T09:47:37.280Z,988.02
2017-04-28T09:48:47.544Z,987.98
2017-04-28T09:49:57.521Z,987.93
2017-04-28T09:51:07.789Z,987.93
2017-04-28T09:52:17.735Z,988.07
2017-04-28T09:53:27.995Z,987.97
2017-04-28T09:54:38.009Z,987.92
2017-04-28T09:55:48.308Z,987.97
2017-04-28T09:56:58.573Z,988.05
2017-04-28T09:58:08.837Z,988.05
2017-04-28T09:59:19.109Z,988.05
2017-04-28T10:00:29.414Z,988.01
2017-04-28T10:01:39.679Z,987.98
2017-04-28T10:02:49.941Z,987.9
2017-04-28T10:04:00.199Z,987.89
2017-04-28T10:05:10.148Z,987.88
2017-04-28T10:06:20.457Z,987.91
2017-04-28T10:07:30.715Z,987.89
2017-04-28T10:08:41.018Z,987.84
2017-04-28T10:09:50.968Z,987.85
2017-04-28T10:11:01.235Z,987.92
2017-04-28T10:12:11.493Z,987.84
2017-04-28T10:13:20.808Z,987.89
2017-04-28T10:14:30.759Z,987.87
2017-04-28T10:15:41.047Z,987.91
2017-04-28T10:16:51.303Z,987.86
2017-04-28T10:18:01.560Z,987.95
2017-04-28T10:19:11.560Z,988.01
2017-04-28T10:20:21.509Z,987.95
2017-04-28T10:21:31.770Z,987.97
2017-04-28T10:22:42.025Z,987.97
2017-04-28T10:23:52.281Z,987.98
2017-04-28T10:25:02.542Z,987.94
2017-04-28T10:26:12.815Z,988
2017-04-28T10:27:23.072Z,987.99
2017-04-28T10:28:33.326Z,988.03
2017-04-28T10:29:43.588Z,988.06
2017-04-28T10:30:53.856Z,988.11
2017-04-28T10:32:04.124Z,988.12
2017-04-28T10:33:14.385Z,988.15
2017-04-28T10:34:24.644Z,988.16
2017-04-28T10:35:34.595Z,988.18
2017-04-28T10:36:44.227Z,988.22
2017-04-28T10:37:54.482Z,988.18
2017-04-28T10:39:04.742Z,988.1
2017-04-28T10:40:14.378Z,988.28
2017-04-28T10:41:24.635Z,988.26
2017-04-28T10:42:34.892Z,988.22
2017-04-28T10:43:44.842Z,988.16
2017-04-28T10:44:55.096Z,988.22
2017-04-28T10:46:05.360Z,988.22
2017-04-28T10:47:15.311Z,988.37
2017-04-28T10:48:25.570Z,988.28
2017-04-28T10:49:35.832Z,988.31
2017-04-28T10:50:46.098Z,988.3
2017-04-28T10:51:56.361Z,988.25
2017-04-28T10:53:06.311Z,988.27
2017-04-28T10:54:16.568Z,988.32
2017-04-28T10:55:26.818Z,988.08
2017-04-28T10:56:37.081Z,988.06
2017-04-28T10:57:47.342Z,988.17
2017-04-28T10:58:57.289Z,988.02
2017-04-28T11:00:07.230Z,988.03
2017-04-28T11:01:17.497Z,988.07
2017-04-28T11:02:27.439Z,988.08
2017-04-28T11:03:37.387Z,988.16
2017-04-28T11:04:47.668Z,988.21
2017-04-28T11:05:57.923Z,988.18
2017-04-28T11:07:07.873Z,988.13
2017-04-28T11:08:17.826Z,988.14
2017-04-28T11:09:28.091Z,988.17
2017-04-28T11:10:38.349Z,988.17
2017-04-28T11:11:47.980Z,988.09
2017-04-28T11:12:58.245Z,988.13
2017-04-28T11:14:08.510Z,988.15
2017-04-28T11:15:18.142Z,988.18
2017-04-28T11:16:28.099Z,988.13
2017-04-28T11:17:38.364Z,988.14
2017-04-28T11:18:48.633Z,988.18
2017-04-28T11:19:58.582Z,988.14
2017-04-28T11:21:08.214Z,988.14
2017-04-28T11:22:18.166Z,988.1
2017-04-28T11:23:27.798Z,988.13
2017-04-28T11:24:38.067Z,988.13
2017-04-28T11:25:48.015Z,988.14
2017-04-28T11:26:58.280Z,988.21
2017-04-28T11:28:07.596Z,988.24
2017-04-28T11:29:17.857Z,988.27
2017-04-28T11:30:28.120Z,988.2
2017-04-28T11:31:38.073Z,988.33
2017-04-28T11:32:48.015Z,988.53
2017-04-28T11:33:58.278Z,988.36
2017-04-28T11:35:08.541Z,988.37
2017-04-28T11:36:18.485Z,988.22
2017-04-28T11:37:28.741Z,988.29
2017-04-28T11:38:39.002Z,988.38
2017-04-28T11:39:49.269Z,988.38
2017-04-28T11:40:59.528Z,988.34
2017-04-28T11:42:09.815Z,988.3
2017-04-28T11:43:20.086Z,988.25
2017-04-28T11:44:30.359Z,988.23
2017-04-28T11:45:40.617Z,988.24
2017-04-28T11:46:50.880Z,988.2
2017-04-28T11:48:00.827Z,988.3
2017-04-28T11:49:11.094Z,988.25
2017-04-28T11:50:21.352Z,988.31
2017-04-28T11:51:31.607Z,988.31
2017-04-28T11:52:41.865Z,988.27
2017-04-28T11:53:51.821Z,988.3
2017-04-28T11:55:02.083Z,988.3
2017-04-28T11:56:12.342Z,988.29
2017-04-28T11:57:22.639Z,988.25
2017-04-28T11:58:32.899Z,988.19
2017-04-28T11:59:43.195Z,988.16
2017-04-28T12:00:53.451Z,988.19
2017-04-28T12:02:03.720Z,988.19
2017-04-28T12:03:13.991Z,988.2
2017-04-28T12:04:23.947Z,988.19
2017-04-28T12:05:33.897Z,988.14
2017-04-28T12:06:43.881Z,988.19
2017-04-28T12:07:53.828Z,988.28
2017-04-28T12:09:03.770Z,988.17
2017-04-28T12:10:13.724Z,988.22
2017-04-28T12:11:23.669Z,988.29
2017-04-28T12:12:33.612Z,988.28
2017-04-28T12:13:43.876Z,988.26
2017-04-28T12:14:53.827Z,988.31
2017-04-28T12:16:04.093Z,988.26
2017-04-28T12:17:14.072Z,988.3
2017-04-28T12:18:24.333Z,988.3
2017-04-28T12:19:34.589Z,988.27
2017-04-28T12:20:44.855Z,988.29
2017-04-28T12:21:54.807Z,988.3
2017-04-28T12:23:04.440Z,988.29
2017-04-28T12:24:14.703Z,988.31
2017-04-28T12:25:24.654Z,988.25
2017-04-28T12:26:34.914Z,988.32
2017-04-28T12:27:44.865Z,988.25
2017-04-28T12:28:55.144Z,988.31
2017-04-28T12:30:05.402Z,988.31
2017-04-28T12:31:15.353Z,988.36
2017-04-28T12:32:25.616Z,988.39
2017-04-28T12:33:35.876Z,988.4
2017-04-28T12:34:46.137Z,988.38
2017-04-28T12:35:56.091Z,988.41
2017-04-28T12:37:06.358Z,988.52
2017-04-28T12:38:16.302Z,988.5
2017-04-28T12:39:26.562Z,988.46
2017-04-28T12:40:36.818Z,988.52
2017-04-28T12:41:46.764Z,988.5
2017-04-28T12:42:56.714Z,988.49
2017-04-28T12:44:06.664Z,988.5
2017-04-28T12:45:16.924Z,988.49
2017-04-28T12:46:27.184Z,988.47
2017-04-28T12:47:37.444Z,988.54
2017-04-28T12:48:47.390Z,988.53
2017-04-28T12:49:57.652Z,988.57
2017-04-28T12:51:07.283Z,988.58
2017-04-28T12:52:17.230Z,988.53
2017-04-28T12:53:27.493Z,988.5
2017-04-28T12:54:37.752Z,988.46
2017-04-28T12:55:47.705Z,988.48
2017-04-28T12:56:57.967Z,988.37
2017-04-28T12:58:07.920Z,988.48
2017-04-28T12:59:17.876Z,988.48
2017-04-28T13:00:28.159Z,988.47
2017-04-28T13:01:38.424Z,988.5
2017-04-28T13:02:48.684Z,988.45
2017-04-28T13:03:58.945Z,988.46
2017-04-28T13:05:08.891Z,988.46
2017-04-28T13:06:19.157Z,988.46
2017-04-28T13:07:29.152Z,988.46
2017-04-28T13:08:39.412Z,988.47
2017-04-28T13:09:49.667Z,988.54
2017-04-28T13:10:59.614Z,988.5
2017-04-28T13:12:09.872Z,988.48
2017-04-28T13:13:19.818Z,988.49
2017-04-28T13:14:30.078Z,988.5
2017-04-28T13:15:40.028Z,988.44
2017-04-28T13:16:49.999Z,988.46
2017-04-28T13:17:59.634Z,988.52
2017-04-28T13:19:09.590Z,988.51
2017-04-28T13:20:19.857Z,988.55
2017-04-28T13:21:29.807Z,988.48
2017-04-28T13:22:40.084Z,988.48
2017-04-28T13:23:50.038Z,988.49
2017-04-28T13:25:00.291Z,988.51
2017-04-28T13:26:10.242Z,988.43
2017-04-28T13:27:20.185Z,988.47
2017-04-28T13:28:30.449Z,988.41
2017-04-28T13:29:40.743Z,988.48
2017-04-28T13:30:51.007Z,988.52
2017-04-28T13:32:01.270Z,988.53
2017-04-28T13:33:11.223Z,988.49
2017-04-28T13:34:21.486Z,988.48
2017-04-28T13:35:31.753Z,988.44
2017-04-28T13:36:42.009Z,988.56
2017-04-28T13:37:52.269Z,988.64
2017-04-28T13:39:02.252Z,988.52
2017-04-28T13:40:12.207Z,988.55
2017-04-28T13:41:22.472Z,988.59
2017-04-28T13:42:32.729Z,988.61
2017-04-28T13:43:42.992Z,988.61
2017-04-28T13:44:53.251Z,988.55
2017-04-28T13:46:03.562Z,988.63
2017-04-28T13:47:13.510Z,988.53
2017-04-28T13:48:23.774Z,988.47
2017-04-28T13:49:34.041Z,988.5
2017-04-28T13:50:44.309Z,988.51
2017-04-28T13:51:54.279Z,988.48
2017-04-28T13:53:04.546Z,988.34
2017-04-28T13:54:14.805Z,988.39
2017-04-28T13:55:24.758Z,988.39
2017-04-28T13:56:35.025Z,988.35
2017-04-28T13:57:45.286Z,988.33
2017-04-28T13:58:55.551Z,988.36
2017-04-28T14:00:05.810Z,988.39
2017-04-28T14:01:16.079Z,988.35
2017-04-28T14:02:26.342Z,988.34
2017-04-28T14:03:36.614Z,988.35
2017-04-28T14:04:46.248Z,988.36
2017-04-28T14:05:55.884Z,988.38
2017-04-28T14:07:05.834Z,988.33
2017-04-28T14:08:15.467Z,988.4
2017-04-28T14:09:25.732Z,988.37
2017-04-28T14:10:36.030Z,988.35
2017-04-28T14:11:46.296Z,988.36
2017-04-28T14:12:56.558Z,988.38
2017-04-28T14:14:06.522Z,988.4
2017-04-28T14:15:16.471Z,988.37
2017-04-28T14:16:26.737Z,988.33
2017-04-28T14:17:37.005Z,988.39
2017-04-28T14:18:47.267Z,988.4
2017-04-28T14:19:57.523Z,988.44
2017-04-28T14:21:07.502Z,988.43
2017-04-28T14:22:17.134Z,988.46
2017-04-28T14:23:27.405Z,988.49
2017-04-28T14:24:37.668Z,988.38
2017-04-28T14:25:47.935Z,988.36
2017-04-28T14:26:58.200Z,988.35
2017-04-28T14:28:08.156Z,988.35
2017-04-28T14:29:18.425Z,988.34
2017-04-28T14:30:28.721Z,988.31
2017-04-28T14:31:38.981Z,988.33
2017-04-28T14:32:49.242Z,988.29
2017-04-28T14:33:59.500Z,988.35
2017-04-28T14:35:09.764Z,988.29
2017-04-28T14:36:19.724Z,988.3
2017-04-28T14:37:29.996Z,988.31
2017-04-28T14:38:40.253Z,988.36